sensor_id;sensor_type;location;lat;lon;timestamp;temperature;humidity
18456;DHT22;9357;49.900;8.208;2023-07-13T00:01:29;20.60;99.90
18456;DHT22;9357;49.900;8.208;2023-07-13T00:03:02;20.60;99.90
18456;DHT22;9357;49.900;8.208;2023-07-13T00:04:36;20.60;99.90
18456;DHT22;9357;49.900;8.208;2023-07-13T00:06:09;20.50;99.90
18456;DHT22;9357;49.900;8.208;2023-07-13T00:07:41;20.40;99.90
18456;DHT22;9357;49.900;8.208;2023-07-13T00:09:15;20.30;99.90
18456;DHT22;9357;49.900;8.208;2023-07-13T00:10:47;20.30;99.90
18456;DHT22;9357;49.900;8.208;2023-07-13T00:12:26;20.20;99.90
18456;DHT22;9357;49.900;8.208;2023-07-13T00:13:58;20.10;99.90
18456;DHT22;9357;49.900;8.208;2023-07-13T00:15:31;20.00;99.90
18456;DHT22;9357;49.900;8.208;2023-07-13T00:17:03;20.00;99.90
18456;DHT22;9357;49.900;8.208;2023-07-13T00:18:36;20.00;99.90
18456;DHT22;9357;49.900;8.208;2023-07-13T00:20:11;19.90;99.90
18456;DHT22;9357;49.900;8.208;2023-07-13T00:21:44;19.90;99.90
18456;DHT22;9357;49.900;8.208;2023-07-13T00:23:15;19.90;99.90
18456;DHT22;9357;49.900;8.208;2023-07-13T00:24:49;19.90;99.90
18456;DHT22;9357;49.900;8.208;2023-07-13T00:26:20;19.90;99.90
18456;DHT22;9357;49.900;8.208;2023-07-13T00:27:54;19.90;99.90
18456;DHT22;9357;49.900;8.208;2023-07-13T00:29:26;19.90;99.90
18456;DHT22;9357;49.900;8.208;2023-07-13T00:30:59;19.80;99.90
18456;DHT22;9357;49.900;8.208;2023-07-13T00:32:31;19.80;99.90
18456;DHT22;9357;49.900;8.208;2023-07-13T00:34:04;19.80;99.90
18456;DHT22;9357;49.900;8.208;2023-07-13T00:35:37;19.80;99.90
18456;DHT22;9357;49.900;8.208;2023-07-13T00:37:11;19.80;99.90
18456;DHT22;9357;49.900;8.208;2023-07-13T00:38:43;19.80;99.90
18456;DHT22;9357;49.900;8.208;2023-07-13T00:40:16;19.80;99.90
18456;DHT22;9357;49.900;8.208;2023-07-13T00:41:48;19.90;99.90
18456;DHT22;9357;49.900;8.208;2023-07-13T00:43:22;19.90;99.90
18456;DHT22;9357;49.900;8.208;2023-07-13T00:45:07;19.90;99.90
18456;DHT22;9357;49.900;8.208;2023-07-13T00:46:40;19.90;99.90
18456;DHT22;9357;49.900;8.208;2023-07-13T00:48:14;19.90;99.90
18456;DHT22;9357;49.900;8.208;2023-07-13T00:49:47;19.90;99.90
18456;DHT22;9357;49.900;8.208;2023-07-13T00:51:25;19.90;99.90
18456;DHT22;9357;49.900;8.208;2023-07-13T00:52:58;19.80;99.90
18456;DHT22;9357;49.900;8.208;2023-07-13T00:54:33;19.80;99.90
18456;DHT22;9357;49.900;8.208;2023-07-13T00:56:06;19.90;99.90
18456;DHT22;9357;49.900;8.208;2023-07-13T00:57:39;19.80;99.90
18456;DHT22;9357;49.900;8.208;2023-07-13T00:59:14;19.80;99.90
18456;DHT22;9357;49.900;8.208;2023-07-13T01:00:47;19.80;99.90
18456;DHT22;9357;49.900;8.208;2023-07-13T01:02:22;19.80;99.90
18456;DHT22;9357;49.900;8.208;2023-07-13T01:03:55;19.80;99.90
18456;DHT22;9357;49.900;8.208;2023-07-13T01:05:28;19.80;99.90
18456;DHT22;9357;49.900;8.208;2023-07-13T01:07:03;19.80;99.90
18456;DHT22;9357;49.900;8.208;2023-07-13T01:08:35;19.80;99.90
18456;DHT22;9357;49.900;8.208;2023-07-13T01:10:08;19.70;99.90
18456;DHT22;9357;49.900;8.208;2023-07-13T01:11:41;19.70;99.90
18456;DHT22;9357;49.900;8.208;2023-07-13T01:13:13;19.60;99.90
18456;DHT22;9357;49.900;8.208;2023-07-13T01:14:45;19.50;99.90
18456;DHT22;9357;49.900;8.208;2023-07-13T01:16:24;19.50;99.90
18456;DHT22;9357;49.900;8.208;2023-07-13T01:17:57;19.40;99.90
18456;DHT22;9357;49.900;8.208;2023-07-13T01:19:35;19.40;99.90
18456;DHT22;9357;49.900;8.208;2023-07-13T01:21:09;19.40;99.90
18456;DHT22;9357;49.900;8.208;2023-07-13T01:22:41;19.30;99.90
18456;DHT22;9357;49.900;8.208;2023-07-13T01:24:14;19.30;99.90
18456;DHT22;9357;49.900;8.208;2023-07-13T01:25:47;19.20;99.90
18456;DHT22;9357;49.900;8.208;2023-07-13T01:27:21;19.20;99.90
18456;DHT22;9357;49.900;8.208;2023-07-13T01:28:56;19.20;99.90
18456;DHT22;9357;49.900;8.208;2023-07-13T01:30:28;19.20;99.90
18456;DHT22;9357;49.900;8.208;2023-07-13T01:32:01;19.20;99.90
18456;DHT22;9357;49.900;8.208;2023-07-13T01:33:33;19.20;99.90
18456;DHT22;9357;49.900;8.208;2023-07-13T01:35:06;19.10;99.90
18456;DHT22;9357;49.900;8.208;2023-07-13T01:36:39;19.20;99.90
18456;DHT22;9357;49.900;8.208;2023-07-13T01:38:14;19.20;99.90
18456;DHT22;9357;49.900;8.208;2023-07-13T01:39:47;19.20;99.90
18456;DHT22;9357;49.900;8.208;2023-07-13T01:41:19;19.20;99.90
18456;DHT22;9357;49.900;8.208;2023-07-13T01:42:52;19.10;99.90
18456;DHT22;9357;49.900;8.208;2023-07-13T01:44:24;19.10;99.90
18456;DHT22;9357;49.900;8.208;2023-07-13T01:45:57;19.10;99.90
18456;DHT22;9357;49.900;8.208;2023-07-13T01:47:50;19.10;99.90
18456;DHT22;9357;49.900;8.208;2023-07-13T01:49:21;19.10;99.90
18456;DHT22;9357;49.900;8.208;2023-07-13T01:50:54;19.10;99.90
18456;DHT22;9357;49.900;8.208;2023-07-13T01:52:27;19.10;99.90
18456;DHT22;9357;49.900;8.208;2023-07-13T01:54:00;19.10;99.90
18456;DHT22;9357;49.900;8.208;2023-07-13T01:55:32;19.00;99.90
18456;DHT22;9357;49.900;8.208;2023-07-13T01:57:05;19.00;99.90
18456;DHT22;9357;49.900;8.208;2023-07-13T01:58:37;19.00;99.90
18456;DHT22;9357;49.900;8.208;2023-07-13T02:00:11;18.90;99.90
18456;DHT22;9357;49.900;8.208;2023-07-13T02:01:43;19.00;99.90
18456;DHT22;9357;49.900;8.208;2023-07-13T02:03:16;19.00;99.90
18456;DHT22;9357;49.900;8.208;2023-07-13T02:04:49;18.90;99.90
18456;DHT22;9357;49.900;8.208;2023-07-13T02:06:22;18.90;99.90
18456;DHT22;9357;49.900;8.208;2023-07-13T02:07:55;18.90;99.90
18456;DHT22;9357;49.900;8.208;2023-07-13T02:09:29;18.80;99.90
18456;DHT22;9357;49.900;8.208;2023-07-13T02:11:03;18.80;99.90
18456;DHT22;9357;49.900;8.208;2023-07-13T02:12:36;18.80;99.90
18456;DHT22;9357;49.900;8.208;2023-07-13T02:14:08;18.80;99.90
18456;DHT22;9357;49.900;8.208;2023-07-13T02:15:41;18.70;99.90
18456;DHT22;9357;49.900;8.208;2023-07-13T02:17:14;18.70;99.90
18456;DHT22;9357;49.900;8.208;2023-07-13T02:18:46;18.70;99.90
18456;DHT22;9357;49.900;8.208;2023-07-13T02:20:18;18.70;99.90
18456;DHT22;9357;49.900;8.208;2023-07-13T02:21:51;18.60;99.90
18456;DHT22;9357;49.900;8.208;2023-07-13T02:23:24;18.60;99.90
18456;DHT22;9357;49.900;8.208;2023-07-13T02:24:57;18.60;99.90
18456;DHT22;9357;49.900;8.208;2023-07-13T02:26:29;18.60;99.90
18456;DHT22;9357;49.900;8.208;2023-07-13T02:28:01;18.60;99.90
18456;DHT22;9357;49.900;8.208;2023-07-13T02:29:33;18.50;99.90
18456;DHT22;9357;49.900;8.208;2023-07-13T02:31:07;18.50;99.90
18456;DHT22;9357;49.900;8.208;2023-07-13T02:32:39;18.50;99.90
18456;DHT22;9357;49.900;8.208;2023-07-13T02:34:12;18.50;99.90
18456;DHT22;9357;49.900;8.208;2023-07-13T02:35:43;18.50;99.90
18456;DHT22;9357;49.900;8.208;2023-07-13T02:37:16;18.50;99.90
18456;DHT22;9357;49.900;8.208;2023-07-13T02:38:50;18.50;99.90
18456;DHT22;9357;49.900;8.208;2023-07-13T02:40:23;18.50;99.90
18456;DHT22;9357;49.900;8.208;2023-07-13T02:41:55;18.40;99.90
18456;DHT22;9357;49.900;8.208;2023-07-13T02:43:28;18.40;99.90
18456;DHT22;9357;49.900;8.208;2023-07-13T02:44:59;18.40;99.90
18456;DHT22;9357;49.900;8.208;2023-07-13T02:46:34;18.40;99.90
18456;DHT22;9357;49.900;8.208;2023-07-13T02:48:06;18.40;99.90
18456;DHT22;9357;49.900;8.208;2023-07-13T02:49:39;18.40;99.90
18456;DHT22;9357;49.900;8.208;2023-07-13T02:51:11;18.30;99.90
18456;DHT22;9357;49.900;8.208;2023-07-13T02:52:43;18.30;99.90
18456;DHT22;9357;49.900;8.208;2023-07-13T02:54:17;18.30;99.90
18456;DHT22;9357;49.900;8.208;2023-07-13T02:55:49;18.30;99.90
18456;DHT22;9357;49.900;8.208;2023-07-13T02:57:22;18.30;99.90
18456;DHT22;9357;49.900;8.208;2023-07-13T02:58:55;18.30;99.90
18456;DHT22;9357;49.900;8.208;2023-07-13T03:00:26;18.30;99.90
18456;DHT22;9357;49.900;8.208;2023-07-13T03:02:00;18.30;99.90
18456;DHT22;9357;49.900;8.208;2023-07-13T03:03:32;18.20;99.90
18456;DHT22;9357;49.900;8.208;2023-07-13T03:05:06;18.20;99.90
18456;DHT22;9357;49.900;8.208;2023-07-13T03:06:39;18.20;99.90
18456;DHT22;9357;49.900;8.208;2023-07-13T03:08:12;18.10;99.90
18456;DHT22;9357;49.900;8.208;2023-07-13T03:09:46;18.00;99.90
18456;DHT22;9357;49.900;8.208;2023-07-13T03:11:20;18.00;99.90
18456;DHT22;9357;49.900;8.208;2023-07-13T03:12:53;18.00;99.90
18456;DHT22;9357;49.900;8.208;2023-07-13T03:14:25;18.00;99.90
18456;DHT22;9357;49.900;8.208;2023-07-13T03:15:58;18.00;99.90
18456;DHT22;9357;49.900;8.208;2023-07-13T03:17:30;17.90;99.90
18456;DHT22;9357;49.900;8.208;2023-07-13T03:19:02;17.90;99.90
18456;DHT22;9357;49.900;8.208;2023-07-13T03:20:34;17.90;99.90
18456;DHT22;9357;49.900;8.208;2023-07-13T03:22:07;17.90;99.90
18456;DHT22;9357;49.900;8.208;2023-07-13T03:23:40;17.80;99.90
18456;DHT22;9357;49.900;8.208;2023-07-13T03:25:13;17.80;99.90
18456;DHT22;9357;49.900;8.208;2023-07-13T03:26:46;17.80;99.90
18456;DHT22;9357;49.900;8.208;2023-07-13T03:28:18;17.80;99.90
18456;DHT22;9357;49.900;8.208;2023-07-13T03:29:50;17.80;99.90
18456;DHT22;9357;49.900;8.208;2023-07-13T03:31:25;17.80;99.90
18456;DHT22;9357;49.900;8.208;2023-07-13T03:32:58;17.80;99.90
18456;DHT22;9357;49.900;8.208;2023-07-13T03:34:30;17.80;99.90
18456;DHT22;9357;49.900;8.208;2023-07-13T03:36:03;17.80;99.90
18456;DHT22;9357;49.900;8.208;2023-07-13T03:37:36;17.70;99.90
18456;DHT22;9357;49.900;8.208;2023-07-13T03:39:13;17.70;99.90
18456;DHT22;9357;49.900;8.208;2023-07-13T03:40:47;17.60;99.90
18456;DHT22;9357;49.900;8.208;2023-07-13T03:42:19;17.60;99.90
18456;DHT22;9357;49.900;8.208;2023-07-13T03:43:52;17.50;99.90
18456;DHT22;9357;49.900;8.208;2023-07-13T03:45:24;17.50;99.90
18456;DHT22;9357;49.900;8.208;2023-07-13T03:46:57;17.40;99.90
18456;DHT22;9357;49.900;8.208;2023-07-13T03:48:29;17.40;99.90
18456;DHT22;9357;49.900;8.208;2023-07-13T03:50:01;17.40;99.90
18456;DHT22;9357;49.900;8.208;2023-07-13T03:51:34;17.30;99.90
18456;DHT22;9357;49.900;8.208;2023-07-13T03:53:07;17.30;99.90
18456;DHT22;9357;49.900;8.208;2023-07-13T03:54:39;17.40;99.90
18456;DHT22;9357;49.900;8.208;2023-07-13T03:56:14;17.40;99.90
18456;DHT22;9357;49.900;8.208;2023-07-13T03:57:46;17.30;99.90
18456;DHT22;9357;49.900;8.208;2023-07-13T03:59:19;17.30;99.90
18456;DHT22;9357;49.900;8.208;2023-07-13T04:00:52;17.30;99.90
18456;DHT22;9357;49.900;8.208;2023-07-13T04:02:24;17.30;99.90
18456;DHT22;9357;49.900;8.208;2023-07-13T04:03:57;17.40;99.90
18456;DHT22;9357;49.900;8.208;2023-07-13T04:05:34;17.40;99.90
18456;DHT22;9357;49.900;8.208;2023-07-13T04:07:06;17.40;99.90
18456;DHT22;9357;49.900;8.208;2023-07-13T04:08:39;17.40;99.90
18456;DHT22;9357;49.900;8.208;2023-07-13T04:10:11;17.40;99.90
18456;DHT22;9357;49.900;8.208;2023-07-13T04:11:45;17.40;99.90
18456;DHT22;9357;49.900;8.208;2023-07-13T04:13:17;17.40;99.90
18456;DHT22;9357;49.900;8.208;2023-07-13T04:14:50;17.40;99.90
18456;DHT22;9357;49.900;8.208;2023-07-13T04:16:23;17.40;99.90
18456;DHT22;9357;49.900;8.208;2023-07-13T04:17:55;17.40;99.90
18456;DHT22;9357;49.900;8.208;2023-07-13T04:19:28;17.30;99.90
18456;DHT22;9357;49.900;8.208;2023-07-13T04:20:59;17.30;99.90
18456;DHT22;9357;49.900;8.208;2023-07-13T04:22:32;17.20;99.90
18456;DHT22;9357;49.900;8.208;2023-07-13T04:24:04;17.20;99.90
18456;DHT22;9357;49.900;8.208;2023-07-13T04:25:37;17.20;99.90
18456;DHT22;9357;49.900;8.208;2023-07-13T04:27:10;17.20;99.90
18456;DHT22;9357;49.900;8.208;2023-07-13T04:28:43;17.20;99.90
18456;DHT22;9357;49.900;8.208;2023-07-13T04:30:15;17.30;99.90
18456;DHT22;9357;49.900;8.208;2023-07-13T04:31:47;17.30;99.90
18456;DHT22;9357;49.900;8.208;2023-07-13T04:33:20;17.30;99.90
18456;DHT22;9357;49.900;8.208;2023-07-13T04:34:54;17.30;99.90
18456;DHT22;9357;49.900;8.208;2023-07-13T04:36:27;17.30;99.90
18456;DHT22;9357;49.900;8.208;2023-07-13T04:37:59;17.40;99.90
18456;DHT22;9357;49.900;8.208;2023-07-13T04:39:31;17.40;99.90
18456;DHT22;9357;49.900;8.208;2023-07-13T04:41:08;17.30;99.90
18456;DHT22;9357;49.900;8.208;2023-07-13T04:42:42;17.30;99.90
18456;DHT22;9357;49.900;8.208;2023-07-13T04:44:14;17.40;99.90
18456;DHT22;9357;49.900;8.208;2023-07-13T04:45:47;17.40;99.90
18456;DHT22;9357;49.900;8.208;2023-07-13T04:47:19;17.40;99.90
18456;DHT22;9357;49.900;8.208;2023-07-13T04:48:52;17.50;99.90
18456;DHT22;9357;49.900;8.208;2023-07-13T04:50:25;17.50;99.90
18456;DHT22;9357;49.900;8.208;2023-07-13T04:51:58;17.50;99.90
18456;DHT22;9357;49.900;8.208;2023-07-13T04:53:30;17.50;99.90
18456;DHT22;9357;49.900;8.208;2023-07-13T04:55:04;17.50;99.90
18456;DHT22;9357;49.900;8.208;2023-07-13T04:56:36;17.50;99.90
18456;DHT22;9357;49.900;8.208;2023-07-13T04:58:10;17.60;99.90
18456;DHT22;9357;49.900;8.208;2023-07-13T04:59:42;17.60;99.90
18456;DHT22;9357;49.900;8.208;2023-07-13T05:01:15;17.60;99.90
18456;DHT22;9357;49.900;8.208;2023-07-13T05:02:47;17.60;99.90
18456;DHT22;9357;49.900;8.208;2023-07-13T05:04:20;17.70;99.90
18456;DHT22;9357;49.900;8.208;2023-07-13T05:05:55;17.70;99.90
18456;DHT22;9357;49.900;8.208;2023-07-13T05:07:28;17.70;99.90
18456;DHT22;9357;49.900;8.208;2023-07-13T05:09:00;17.70;99.90
18456;DHT22;9357;49.900;8.208;2023-07-13T05:10:33;17.80;99.90
18456;DHT22;9357;49.900;8.208;2023-07-13T05:12:06;17.80;99.90
18456;DHT22;9357;49.900;8.208;2023-07-13T05:13:40;17.80;99.90
18456;DHT22;9357;49.900;8.208;2023-07-13T05:15:13;17.80;99.90
18456;DHT22;9357;49.900;8.208;2023-07-13T05:16:45;17.90;99.90
18456;DHT22;9357;49.900;8.208;2023-07-13T05:18:17;17.90;99.90
18456;DHT22;9357;49.900;8.208;2023-07-13T05:19:49;18.00;99.90
18456;DHT22;9357;49.900;8.208;2023-07-13T05:21:22;18.00;99.90
18456;DHT22;9357;49.900;8.208;2023-07-13T05:22:54;18.00;99.90
18456;DHT22;9357;49.900;8.208;2023-07-13T05:24:26;18.00;99.90
18456;DHT22;9357;49.900;8.208;2023-07-13T05:25:59;18.10;99.90
18456;DHT22;9357;49.900;8.208;2023-07-13T05:27:32;18.10;99.90
18456;DHT22;9357;49.900;8.208;2023-07-13T05:29:05;18.10;99.90
18456;DHT22;9357;49.900;8.208;2023-07-13T05:30:38;18.10;99.90
18456;DHT22;9357;49.900;8.208;2023-07-13T05:32:10;18.20;99.90
18456;DHT22;9357;49.900;8.208;2023-07-13T05:33:42;18.20;99.90
18456;DHT22;9357;49.900;8.208;2023-07-13T05:35:14;18.20;99.90
18456;DHT22;9357;49.900;8.208;2023-07-13T05:36:47;18.20;99.90
18456;DHT22;9357;49.900;8.208;2023-07-13T05:38:20;18.20;99.90
18456;DHT22;9357;49.900;8.208;2023-07-13T05:39:52;18.30;99.90
18456;DHT22;9357;49.900;8.208;2023-07-13T05:41:24;18.30;99.90
18456;DHT22;9357;49.900;8.208;2023-07-13T05:42:57;18.30;99.90
18456;DHT22;9357;49.900;8.208;2023-07-13T05:44:30;18.30;99.90
18456;DHT22;9357;49.900;8.208;2023-07-13T05:46:03;18.40;99.90
18456;DHT22;9357;49.900;8.208;2023-07-13T05:47:34;18.40;99.90
18456;DHT22;9357;49.900;8.208;2023-07-13T05:49:07;18.40;99.90
18456;DHT22;9357;49.900;8.208;2023-07-13T05:50:39;18.50;99.90
18456;DHT22;9357;49.900;8.208;2023-07-13T05:52:12;18.60;99.90
18456;DHT22;9357;49.900;8.208;2023-07-13T05:53:45;18.60;99.90
18456;DHT22;9357;49.900;8.208;2023-07-13T05:55:16;18.70;99.90
18456;DHT22;9357;49.900;8.208;2023-07-13T05:56:49;18.70;99.90
18456;DHT22;9357;49.900;8.208;2023-07-13T05:58:22;18.80;99.90
18456;DHT22;9357;49.900;8.208;2023-07-13T05:59:55;18.90;99.90
18456;DHT22;9357;49.900;8.208;2023-07-13T06:01:29;18.90;99.90
18456;DHT22;9357;49.900;8.208;2023-07-13T06:03:02;19.00;99.90
18456;DHT22;9357;49.900;8.208;2023-07-13T06:04:35;19.10;99.90
18456;DHT22;9357;49.900;8.208;2023-07-13T06:06:08;19.20;99.90
18456;DHT22;9357;49.900;8.208;2023-07-13T06:07:42;19.20;99.90
18456;DHT22;9357;49.900;8.208;2023-07-13T06:09:15;19.30;99.90
18456;DHT22;9357;49.900;8.208;2023-07-13T06:10:46;19.40;99.90
18456;DHT22;9357;49.900;8.208;2023-07-13T06:12:19;19.40;99.90
18456;DHT22;9357;49.900;8.208;2023-07-13T06:13:51;19.50;99.90
18456;DHT22;9357;49.900;8.208;2023-07-13T06:15:25;19.60;99.90
18456;DHT22;9357;49.900;8.208;2023-07-13T06:16:57;19.70;99.90
18456;DHT22;9357;49.900;8.208;2023-07-13T06:18:30;19.80;99.90
18456;DHT22;9357;49.900;8.208;2023-07-13T06:20:02;19.80;99.90
18456;DHT22;9357;49.900;8.208;2023-07-13T06:21:35;19.90;99.90
18456;DHT22;9357;49.900;8.208;2023-07-13T06:23:07;20.00;99.90
18456;DHT22;9357;49.900;8.208;2023-07-13T06:24:40;20.10;99.90
18456;DHT22;9357;49.900;8.208;2023-07-13T06:26:11;20.10;99.90
18456;DHT22;9357;49.900;8.208;2023-07-13T06:27:44;20.20;99.90
18456;DHT22;9357;49.900;8.208;2023-07-13T06:29:16;20.30;99.90
18456;DHT22;9357;49.900;8.208;2023-07-13T06:30:50;20.40;99.90
18456;DHT22;9357;49.900;8.208;2023-07-13T06:32:22;20.50;99.90
18456;DHT22;9357;49.900;8.208;2023-07-13T06:33:55;20.50;99.90
18456;DHT22;9357;49.900;8.208;2023-07-13T06:35:27;20.60;99.90
18456;DHT22;9357;49.900;8.208;2023-07-13T06:36:59;20.80;99.90
18456;DHT22;9357;49.900;8.208;2023-07-13T06:38:32;20.90;99.90
18456;DHT22;9357;49.900;8.208;2023-07-13T06:40:05;21.10;99.90
18456;DHT22;9357;49.900;8.208;2023-07-13T06:41:38;21.30;99.90
18456;DHT22;9357;49.900;8.208;2023-07-13T06:43:10;21.50;99.90
18456;DHT22;9357;49.900;8.208;2023-07-13T06:44:43;21.80;99.90
18456;DHT22;9357;49.900;8.208;2023-07-13T06:46:16;22.10;99.90
18456;DHT22;9357;49.900;8.208;2023-07-13T06:47:49;22.30;99.90
18456;DHT22;9357;49.900;8.208;2023-07-13T06:49:21;22.50;99.90
18456;DHT22;9357;49.900;8.208;2023-07-13T06:50:53;22.80;99.90
18456;DHT22;9357;49.900;8.208;2023-07-13T06:52:25;23.00;99.90
18456;DHT22;9357;49.900;8.208;2023-07-13T06:53:58;23.20;99.90
18456;DHT22;9357;49.900;8.208;2023-07-13T06:55:30;23.50;99.90
18456;DHT22;9357;49.900;8.208;2023-07-13T06:57:03;23.70;99.90
18456;DHT22;9357;49.900;8.208;2023-07-13T06:58:35;24.00;99.90
18456;DHT22;9357;49.900;8.208;2023-07-13T07:00:09;24.20;99.90
18456;DHT22;9357;49.900;8.208;2023-07-13T07:01:43;24.40;99.90
18456;DHT22;9357;49.900;8.208;2023-07-13T07:03:16;24.70;99.90
18456;DHT22;9357;49.900;8.208;2023-07-13T07:04:47;24.90;99.90
18456;DHT22;9357;49.900;8.208;2023-07-13T07:06:22;25.10;99.90
18456;DHT22;9357;49.900;8.208;2023-07-13T07:07:55;25.30;99.90
18456;DHT22;9357;49.900;8.208;2023-07-13T07:09:27;25.50;99.90
18456;DHT22;9357;49.900;8.208;2023-07-13T07:11:01;25.70;99.90
18456;DHT22;9357;49.900;8.208;2023-07-13T07:12:34;26.00;99.90
18456;DHT22;9357;49.900;8.208;2023-07-13T07:14:06;26.20;99.90
18456;DHT22;9357;49.900;8.208;2023-07-13T07:15:39;26.40;99.90
18456;DHT22;9357;49.900;8.208;2023-07-13T07:17:12;26.60;99.90
18456;DHT22;9357;49.900;8.208;2023-07-13T07:18:46;26.90;99.90
18456;DHT22;9357;49.900;8.208;2023-07-13T07:20:19;27.10;99.90
18456;DHT22;9357;49.900;8.208;2023-07-13T07:21:51;27.20;99.90
18456;DHT22;9357;49.900;8.208;2023-07-13T07:23:24;27.40;99.90
18456;DHT22;9357;49.900;8.208;2023-07-13T07:24:56;27.40;99.90
18456;DHT22;9357;49.900;8.208;2023-07-13T07:26:29;27.40;99.90
18456;DHT22;9357;49.900;8.208;2023-07-13T07:28:21;27.50;99.90
18456;DHT22;9357;49.900;8.208;2023-07-13T07:29:57;27.70;99.90
18456;DHT22;9357;49.900;8.208;2023-07-13T07:31:32;27.80;99.90
18456;DHT22;9357;49.900;8.208;2023-07-13T07:33:09;27.90;99.90
18456;DHT22;9357;49.900;8.208;2023-07-13T07:34:41;28.00;99.90
18456;DHT22;9357;49.900;8.208;2023-07-13T07:36:13;28.20;99.90
18456;DHT22;9357;49.900;8.208;2023-07-13T07:37:49;28.30;99.90
18456;DHT22;9357;49.900;8.208;2023-07-13T07:39:22;28.50;99.90
18456;DHT22;9357;49.900;8.208;2023-07-13T07:40:55;28.60;99.90
18456;DHT22;9357;49.900;8.208;2023-07-13T07:42:29;28.70;99.90
18456;DHT22;9357;49.900;8.208;2023-07-13T07:44:02;28.80;99.90
18456;DHT22;9357;49.900;8.208;2023-07-13T07:45:35;28.90;99.90
18456;DHT22;9357;49.900;8.208;2023-07-13T07:47:09;28.90;99.90
18456;DHT22;9357;49.900;8.208;2023-07-13T07:48:42;29.00;99.90
18456;DHT22;9357;49.900;8.208;2023-07-13T07:50:15;29.00;99.90
18456;DHT22;9357;49.900;8.208;2023-07-13T07:51:47;29.10;99.90
18456;DHT22;9357;49.900;8.208;2023-07-13T07:53:20;29.10;99.90
18456;DHT22;9357;49.900;8.208;2023-07-13T07:54:53;29.00;99.90
18456;DHT22;9357;49.900;8.208;2023-07-13T07:56:27;29.10;99.90
18456;DHT22;9357;49.900;8.208;2023-07-13T07:58:03;29.20;99.90
18456;DHT22;9357;49.900;8.208;2023-07-13T07:59:55;29.30;99.90
18456;DHT22;9357;49.900;8.208;2023-07-13T08:01:30;29.40;99.90
18456;DHT22;9357;49.900;8.208;2023-07-13T08:03:06;29.50;99.90
18456;DHT22;9357;49.900;8.208;2023-07-13T08:04:42;29.50;99.90
18456;DHT22;9357;49.900;8.208;2023-07-13T08:06:35;29.40;99.90
18456;DHT22;9357;49.900;8.208;2023-07-13T08:08:10;29.50;99.90
18456;DHT22;9357;49.900;8.208;2023-07-13T08:09:42;29.50;99.90
18456;DHT22;9357;49.900;8.208;2023-07-13T08:11:16;29.60;99.90
18456;DHT22;9357;49.900;8.208;2023-07-13T08:12:51;29.60;99.90
18456;DHT22;9357;49.900;8.208;2023-07-13T08:14:27;29.60;99.90
18456;DHT22;9357;49.900;8.208;2023-07-13T08:16:18;29.70;99.90
18456;DHT22;9357;49.900;8.208;2023-07-13T08:17:51;29.70;99.90
18456;DHT22;9357;49.900;8.208;2023-07-13T08:19:23;29.70;99.90
18456;DHT22;9357;49.900;8.208;2023-07-13T08:20:57;29.70;99.90
18456;DHT22;9357;49.900;8.208;2023-07-13T08:22:30;29.70;99.90
18456;DHT22;9357;49.900;8.208;2023-07-13T08:24:03;29.70;99.90
18456;DHT22;9357;49.900;8.208;2023-07-13T08:25:36;29.70;99.90
18456;DHT22;9357;49.900;8.208;2023-07-13T08:27:08;29.80;99.90
18456;DHT22;9357;49.900;8.208;2023-07-13T08:28:41;29.90;99.90
18456;DHT22;9357;49.900;8.208;2023-07-13T08:30:13;29.90;99.90
18456;DHT22;9357;49.900;8.208;2023-07-13T08:31:46;29.80;99.90
18456;DHT22;9357;49.900;8.208;2023-07-13T08:33:19;29.70;99.90
18456;DHT22;9357;49.900;8.208;2023-07-13T08:34:52;29.60;99.80
18456;DHT22;9357;49.900;8.208;2023-07-13T08:36:26;29.40;99.90
18456;DHT22;9357;49.900;8.208;2023-07-13T08:37:59;29.40;99.90
18456;DHT22;9357;49.900;8.208;2023-07-13T08:39:32;29.40;99.90
18456;DHT22;9357;49.900;8.208;2023-07-13T08:41:12;29.50;99.90
18456;DHT22;9357;49.900;8.208;2023-07-13T08:42:48;29.40;99.90
18456;DHT22;9357;49.900;8.208;2023-07-13T08:44:30;29.50;99.90
18456;DHT22;9357;49.900;8.208;2023-07-13T08:46:11;29.50;99.90
18456;DHT22;9357;49.900;8.208;2023-07-13T08:47:48;29.60;99.80
18456;DHT22;9357;49.900;8.208;2023-07-13T08:49:25;29.60;99.90
18456;DHT22;9357;49.900;8.208;2023-07-13T08:51:02;29.50;98.50
18456;DHT22;9357;49.900;8.208;2023-07-13T08:52:40;29.40;99.90
18456;DHT22;9357;49.900;8.208;2023-07-13T08:54:20;29.30;99.90
18456;DHT22;9357;49.900;8.208;2023-07-13T08:55:57;29.30;99.60
18456;DHT22;9357;49.900;8.208;2023-07-13T08:57:33;29.30;99.90
18456;DHT22;9357;49.900;8.208;2023-07-13T08:59:12;29.40;99.90
18456;DHT22;9357;49.900;8.208;2023-07-13T09:00:52;29.50;99.90
18456;DHT22;9357;49.900;8.208;2023-07-13T09:02:28;29.60;99.90
18456;DHT22;9357;49.900;8.208;2023-07-13T09:04:09;29.70;99.90
18456;DHT22;9357;49.900;8.208;2023-07-13T09:05:50;29.90;98.90
18456;DHT22;9357;49.900;8.208;2023-07-13T09:07:32;29.90;99.70
18456;DHT22;9357;49.900;8.208;2023-07-13T09:09:14;30.00;99.60
18456;DHT22;9357;49.900;8.208;2023-07-13T09:10:56;30.10;98.50
18456;DHT22;9357;49.900;8.208;2023-07-13T09:12:35;30.10;98.90
18456;DHT22;9357;49.900;8.208;2023-07-13T09:14:34;30.10;99.50
18456;DHT22;9357;49.900;8.208;2023-07-13T09:16:06;30.20;98.10
18456;DHT22;9357;49.900;8.208;2023-07-13T09:17:46;30.20;97.00
18456;DHT22;9357;49.900;8.208;2023-07-13T09:19:24;30.10;98.10
18456;DHT22;9357;49.900;8.208;2023-07-13T09:21:02;30.00;97.20
18456;DHT22;9357;49.900;8.208;2023-07-13T09:22:37;29.90;97.90
18456;DHT22;9357;49.900;8.208;2023-07-13T09:24:28;29.90;98.40
18456;DHT22;9357;49.900;8.208;2023-07-13T09:26:05;30.10;98.80
18456;DHT22;9357;49.900;8.208;2023-07-13T09:27:41;30.10;99.00
18456;DHT22;9357;49.900;8.208;2023-07-13T09:29:29;30.20;97.50
18456;DHT22;9357;49.900;8.208;2023-07-13T09:31:06;30.20;97.80
18456;DHT22;9357;49.900;8.208;2023-07-13T09:32:42;30.30;98.70
18456;DHT22;9357;49.900;8.208;2023-07-13T09:34:16;30.30;96.80
18456;DHT22;9357;49.900;8.208;2023-07-13T09:35:49;30.30;97.60
18456;DHT22;9357;49.900;8.208;2023-07-13T09:37:28;30.30;97.90
18456;DHT22;9357;49.900;8.208;2023-07-13T09:39:04;30.30;97.50
18456;DHT22;9357;49.900;8.208;2023-07-13T09:40:48;30.30;96.60
18456;DHT22;9357;49.900;8.208;2023-07-13T09:42:23;30.30;97.00
18456;DHT22;9357;49.900;8.208;2023-07-13T09:44:11;30.30;96.00
18456;DHT22;9357;49.900;8.208;2023-07-13T09:45:45;30.20;95.70
18456;DHT22;9357;49.900;8.208;2023-07-13T09:47:20;30.10;95.40
18456;DHT22;9357;49.900;8.208;2023-07-13T09:48:56;29.90;96.20
18456;DHT22;9357;49.900;8.208;2023-07-13T09:50:28;29.90;96.40
18456;DHT22;9357;49.900;8.208;2023-07-13T09:52:04;29.90;96.10
18456;DHT22;9357;49.900;8.208;2023-07-13T09:53:37;29.80;97.00
18456;DHT22;9357;49.900;8.208;2023-07-13T09:55:27;29.90;95.80
18456;DHT22;9357;49.900;8.208;2023-07-13T09:57:04;29.80;95.50
18456;DHT22;9357;49.900;8.208;2023-07-13T09:58:44;29.70;95.00
18456;DHT22;9357;49.900;8.208;2023-07-13T10:00:21;29.70;96.10
18456;DHT22;9357;49.900;8.208;2023-07-13T10:01:53;29.70;96.30
18456;DHT22;9357;49.900;8.208;2023-07-13T10:03:27;29.60;96.30